Time;durP1;ratioP1;P1;durP2;ratioP2;P2;SDS_P1;SDS_P2;PMS_P1;PMS_P2;Temp;Humidity;BMP_temperature;BMP_pressure;BME280_temperature;BME280_humidity;BME280_pressure;Samples;Min_cycle;Max_cycle;Signal;HPM_P1;HPM_P2
2023/01/14 00:00:25;;;;;;;10.07;2.57;;;7.50;99.90;;;;;;5040812;28;20048;-69
2023/01/14 00:02:51;;;;;;;15.90;2.15;;;7.50;99.90;;;;;;5065847;28;20052;-70
2023/01/14 00:05:17;;;;;;;9.07;1.60;;;7.40;99.90;;;;;;5067260;28;20146;-70
2023/01/14 00:07:43;;;;;;;8.93;2.03;;;7.60;99.90;;;;;;5057292;28;20041;-70
2023/01/14 00:10:09;;;;;;;6.70;2.00;;;7.50;99.90;;;;;;5051422;28;20413;-70
2023/01/14 00:12:35;;;;;;;15.70;2.28;;;7.50;99.90;;;;;;5051339;28;20047;-70
2023/01/14 00:15:01;;;;;;;16.20;3.00;;;7.60;99.90;;;;;;5035739;28;20045;-70
2023/01/14 00:17:27;;;;;;;14.65;1.70;;;7.60;99.90;;;;;;5048423;28;20410;-70
2023/01/14 00:19:52;;;;;;;9.80;1.43;;;7.60;99.90;;;;;;5046864;28;20517;-70
2023/01/14 00:22:18;;;;;;;8.27;1.37;;;7.60;99.90;;;;;;5061482;28;20281;-70
2023/01/14 00:24:45;;;;;;;10.30;2.27;;;7.60;99.90;;;;;;5056988;28;20049;-70
2023/01/14 00:27:12;;;;;;;8.65;1.45;;;7.60;99.90;;;;;;5049362;28;20505;-70
2023/01/14 00:29:37;;;;;;;9.05;1.80;;;7.60;99.90;;;;;;5066236;28;20036;-69
2023/01/14 00:32:05;;;;;;;13.33;2.00;;;7.60;99.90;;;;;;5060951;28;20082;-70
2023/01/14 00:34:32;;;;;;;8.52;1.55;;;7.50;99.90;;;;;;5060987;28;20032;-70
2023/01/14 00:37:01;;;;;;;12.40;1.55;;;7.60;99.90;;;;;;5061707;28;20044;-70
2023/01/14 00:39:26;;;;;;;12.33;1.63;;;7.60;99.90;;;;;;5063526;28;20409;-70
2023/01/14 00:41:52;;;;;;;9.53;2.37;;;7.60;99.90;;;;;;5064145;28;20051;-70
2023/01/14 00:44:20;;;;;;;7.50;1.30;;;7.60;99.90;;;;;;5041056;28;20032;-70
2023/01/14 00:46:46;;;;;;;9.73;1.10;;;7.60;99.90;;;;;;5049074;28;20415;-70
2023/01/14 00:49:22;;;;;;;5.93;1.60;;;7.60;99.90;;;;;;5068115;28;20520;-70
2023/01/14 00:51:48;;;;;;;11.95;2.10;;;7.50;99.90;;;;;;5057683;28;20134;-70
2023/01/14 00:54:14;;;;;;;5.72;1.23;;;7.50;99.90;;;;;;5065592;28;20048;-70
2023/01/14 00:56:43;;;;;;;9.35;1.48;;;7.50;99.90;;;;;;5052555;28;20048;-70
2023/01/14 00:59:19;;;;;;;9.30;1.58;;;7.50;99.90;;;;;;5066239;28;20041;-70
2023/01/14 01:01:46;;;;;;;8.73;1.67;;;7.50;99.90;;;;;;5064750;28;20040;-70
2023/01/14 01:04:11;;;;;;;7.68;1.65;;;7.40;99.90;;;;;;5053904;28;20045;-70
2023/01/14 01:06:37;;;;;;;8.27;1.80;;;7.50;99.90;;;;;;5055517;28;20037;-70
2023/01/14 01:09:03;;;;;;;8.20;1.63;;;7.50;99.90;;;;;;5062551;28;20386;-70
2023/01/14 01:11:29;;;;;;;19.13;1.98;;;7.40;99.90;;;;;;5057711;28;20483;-70
2023/01/14 01:13:56;;;;;;;18.33;2.75;;;7.40;99.90;;;;;;5056755;28;20076;-70
2023/01/14 01:16:24;;;;;;;10.80;1.80;;;7.40;99.90;;;;;;5064994;28;20128;-71
2023/01/14 01:18:51;;;;;;;12.45;1.80;;;7.40;99.90;;;;;;5066773;28;20037;-71
2023/01/14 01:21:17;;;;;;;13.05;2.40;;;7.40;99.90;;;;;;5065025;28;20040;-70
2023/01/14 01:23:45;;;;;;;10.50;1.83;;;7.40;99.90;;;;;;5053099;28;20505;-70
2023/01/14 01:26:14;;;;;;;6.22;1.90;;;7.40;99.90;;;;;;5059835;28;20618;-70
2023/01/14 01:28:39;;;;;;;14.15;2.25;;;7.40;99.90;;;;;;5048199;28;20052;-70
2023/01/14 01:31:11;;;;;;;13.57;1.37;;;7.30;99.90;;;;;;5067299;28;20485;-70
2023/01/14 01:33:37;;;;;;;13.35;2.25;;;7.30;99.90;;;;;;5064305;28;20057;-70
2023/01/14 01:36:12;;;;;;;7.93;1.95;;;7.30;99.90;;;;;;5071511;28;20180;-70
2023/01/14 01:38:38;;;;;;;10.30;2.15;;;7.30;99.90;;;;;;5063187;28;20048;-70
2023/01/14 01:41:05;;;;;;;16.85;2.95;;;7.30;99.90;;;;;;5062828;28;20114;-70
2023/01/14 01:43:32;;;;;;;12.65;1.67;;;7.30;99.90;;;;;;5062923;28;20502;-70
2023/01/14 01:46:01;;;;;;;9.63;1.70;;;7.30;99.90;;;;;;5066706;28;20493;-70
2023/01/14 01:48:37;;;;;;;11.20;1.92;;;7.40;99.90;;;;;;5063845;28;20445;-70
2023/01/14 01:51:17;;;;;;;10.68;2.00;;;7.30;99.90;;;;;;5058669;28;20036;-68
2023/01/14 01:53:44;;;;;;;7.90;1.48;;;7.40;99.90;;;;;;5067752;28;20108;-69
2023/01/14 01:56:15;;;;;;;9.95;1.65;;;7.30;99.90;;;;;;5067468;28;20071;-68
2023/01/14 01:58:42;;;;;;;4.97;1.30;;;7.40;99.90;;;;;;5067827;28;20036;-68
2023/01/14 02:01:13;;;;;;;7.63;1.63;;;7.40;99.90;;;;;;5062307;28;20040;-69
2023/01/14 02:03:41;;;;;;;9.27;1.48;;;7.40;99.90;;;;;;5052495;28;20098;-68
2023/01/14 02:06:10;;;;;;;11.05;1.77;;;7.40;99.90;;;;;;5069443;28;20055;-68
2023/01/14 02:08:40;;;;;;;13.18;2.30;;;7.40;99.90;;;;;;5062754;28;20120;-68
2023/01/14 02:11:24;;;;;;;14.05;2.70;;;7.40;99.90;;;;;;5061555;28;20427;-68
2023/01/14 02:14:34;;;;;;;8.18;1.88;;;7.40;99.90;;;;;;5069171;28;20040;-68
2023/01/14 02:17:18;;;;;;;10.90;1.88;;;7.40;99.90;;;;;;4990584;28;20068;-68
2023/01/14 02:20:10;;;;;;;15.32;1.95;;;7.40;99.90;;;;;;5006603;28;20046;-68
2023/01/14 02:22:54;;;;;;;12.18;1.40;;;7.40;99.90;;;;;;5044078;28;20052;-68
2023/01/14 02:25:38;;;;;;;12.20;1.83;;;7.40;99.90;;;;;;5070937;28;20448;-69
2023/01/14 02:28:04;;;;;;;12.93;1.90;;;7.40;99.90;;;;;;5043330;28;20159;-68
2023/01/14 02:30:37;;;;;;;7.87;1.53;;;7.30;99.90;;;;;;5055363;28;20052;-68
2023/01/14 02:33:28;;;;;;;8.85;1.38;;;7.30;99.90;;;;;;5068672;28;20044;-68
2023/01/14 02:35:58;;;;;;;13.10;1.90;;;7.20;99.90;;;;;;5052240;28;20043;-68
2023/01/14 02:38:42;;;;;;;13.57;2.00;;;7.30;99.90;;;;;;5060354;28;20044;-68
2023/01/14 02:44:06;;;;;;;16.95;1.85;;;7.20;99.90;;;;;;5055833;28;20028;-68
2023/01/14 02:44:13;;;;;;;11.90;1.60;;;7.10;99.90;;;;;;5058556;28;20052;-69
2023/01/14 02:46:50;;;;;;;9.75;1.58;;;7.10;99.90;;;;;;5056321;28;20072;-68
2023/01/14 02:49:27;;;;;;;11.55;2.03;;;7.10;99.90;;;;;;5056655;28;20063;-68
2023/01/14 02:51:55;;;;;;;8.20;1.83;;;7.10;99.90;;;;;;5056353;28;20756;-69
2023/01/14 02:54:21;;;;;;;13.38;2.50;;;7.00;99.90;;;;;;5064191;28;20274;-69
2023/01/14 02:56:49;;;;;;;14.13;1.75;;;7.00;99.90;;;;;;5064882;28;20153;-69
2023/01/14 02:59:33;;;;;;;11.65;2.22;;;7.00;99.90;;;;;;5054224;28;20099;-69
2023/01/14 03:02:14;;;;;;;9.73;2.53;;;7.00;99.90;;;;;;5056703;28;20044;-68
2023/01/14 03:04:51;;;;;;;10.65;1.55;;;7.00;99.90;;;;;;5051249;28;20425;-69
2023/01/14 03:07:30;;;;;;;13.45;1.73;;;6.90;99.90;;;;;;5067329;28;20037;-69
2023/01/14 03:09:55;;;;;;;14.38;2.45;;;6.90;99.90;;;;;;5051343;28;20045;-68
2023/01/14 03:12:54;;;;;;;10.93;1.87;;;6.80;99.90;;;;;;5050913;28;20033;-69
2023/01/14 03:15:26;;;;;;;7.68;1.90;;;6.80;99.90;;;;;;5054876;28;20036;-68
2023/01/14 03:18:23;;;;;;;9.45;1.35;;;6.80;99.90;;;;;;5065321;28;20423;-68
2023/01/14 03:21:20;;;;;;;8.13;1.83;;;6.70;99.90;;;;;;5055043;28;20051;-68
2023/01/14 03:23:55;;;;;;;15.02;2.10;;;6.70;99.90;;;;;;5038560;28;20158;-68
2023/01/14 03:26:24;;;;;;;9.65;1.55;;;6.70;99.90;;;;;;5070393;28;20505;-69
2023/01/14 03:28:50;;;;;;;12.20;2.58;;;6.60;99.90;;;;;;5057349;28;20049;-68
2023/01/14 03:31:23;;;;;;;8.82;1.42;;;6.60;99.90;;;;;;5059977;28;20040;-69
2023/01/14 03:33:53;;;;;;;15.43;2.63;;;6.60;99.90;;;;;;5047838;28;20486;-68
2023/01/14 03:36:20;;;;;;;8.85;1.85;;;6.60;99.90;;;;;;5061593;28;20069;-69
2023/01/14 03:38:56;;;;;;;7.28;1.52;;;6.60;99.90;;;;;;5051987;28;20150;-69
2023/01/14 03:44:18;;;;;;;11.02;1.52;;;6.50;99.90;;;;;;5056741;28;20363;-69
2023/01/14 03:46:44;;;;;;;14.18;3.25;;;6.50;99.90;;;;;;5057064;28;20040;-69
2023/01/14 03:49:09;;;;;;;11.03;1.80;;;6.50;99.90;;;;;;5059101;28;20051;-69
2023/01/14 03:51:57;;;;;;;10.77;2.07;;;6.40;99.90;;;;;;5063530;28;20041;-68
2023/01/14 03:54:32;;;;;;;4.95;1.40;;;6.40;99.90;;;;;;5064391;28;20379;-69
2023/01/14 03:57:12;;;;;;;17.17;1.70;;;6.40;99.90;;;;;;5051750;28;20410;-69
2023/01/14 03:59:46;;;;;;;10.43;1.63;;;6.40;99.90;;;;;;5062352;28;20055;-69
2023/01/14 04:02:14;;;;;;;9.88;1.52;;;6.40;99.90;;;;;;5056187;28;20080;-69
2023/01/14 04:04:42;;;;;;;8.98;1.58;;;6.30;99.90;;;;;;5068777;28;20536;-69
2023/01/14 04:07:08;;;;;;;10.85;2.17;;;6.30;99.90;;;;;;5043775;28;20119;-69
2023/01/14 04:09:34;;;;;;;17.58;2.40;;;6.30;99.90;;;;;;5047186;28;20127;-69
2023/01/14 04:12:00;;;;;;;6.03;1.63;;;6.30;99.90;;;;;;5068332;28;20040;-69
2023/01/14 04:17:10;;;;;;;12.10;1.58;;;6.30;99.90;;;;;;5059403;28;20033;-69
2023/01/14 04:19:35;;;;;;;13.93;2.00;;;6.20;99.90;;;;;;5069262;28;20033;-69
2023/01/14 04:22:01;;;;;;;10.33;1.50;;;6.20;99.90;;;;;;5068135;28;20052;-69
2023/01/14 04:24:26;;;;;;;6.83;1.43;;;6.20;99.90;;;;;;5054529;28;20037;-69
2023/01/14 04:26:52;;;;;;;12.53;2.50;;;6.20;99.90;;;;;;5067849;28;20040;-69
2023/01/14 04:29:18;;;;;;;12.27;1.57;;;6.20;99.90;;;;;;5056604;28;20041;-69
2023/01/14 04:31:43;;;;;;;8.63;2.57;;;6.20;99.90;;;;;;5052133;28;20315;-69
2023/01/14 04:34:09;;;;;;;11.43;2.07;;;6.20;99.90;;;;;;5068610;28;20371;-69
2023/01/14 04:36:35;;;;;;;17.77;2.07;;;6.20;99.90;;;;;;5051453;28;20518;-69
2023/01/14 04:39:00;;;;;;;10.50;1.93;;;6.20;99.90;;;;;;5057330;28;20505;-69
2023/01/14 04:44:10;;;;;;;7.93;2.05;;;6.10;99.90;;;;;;5063579;28;20032;-69
2023/01/14 04:46:36;;;;;;;12.17;1.60;;;6.10;99.90;;;;;;5041761;28;20028;-69
2023/01/14 04:49:02;;;;;;;8.83;1.20;;;6.10;99.90;;;;;;5063236;28;20036;-68
2023/01/14 04:51:27;;;;;;;8.18;2.03;;;6.10;99.90;;;;;;5061206;28;20033;-68
2023/01/14 04:53:54;;;;;;;9.83;1.47;;;6.10;99.90;;;;;;5065342;28;20040;-69
2023/01/14 04:56:20;;;;;;;6.75;1.67;;;6.10;99.90;;;;;;5054593;28;20040;-69
2023/01/14 04:58:46;;;;;;;11.30;2.33;;;6.10;99.90;;;;;;5065334;28;20072;-69
2023/01/14 05:01:12;;;;;;;8.48;1.50;;;6.10;99.90;;;;;;5065739;28;20486;-69
2023/01/14 05:03:38;;;;;;;5.93;1.27;;;6.00;99.90;;;;;;5057814;28;20186;-70
2023/01/14 05:06:05;;;;;;;9.27;1.30;;;6.10;99.90;;;;;;5048414;28;20102;-69
2023/01/14 05:08:30;;;;;;;11.55;1.70;;;6.00;99.90;;;;;;5062922;28;20272;-69
2023/01/14 05:10:56;;;;;;;4.00;1.33;;;6.00;99.90;;;;;;5054100;28;20051;-68
2023/01/14 05:13:21;;;;;;;15.60;2.20;;;6.00;99.90;;;;;;5061323;28;20036;-69
2023/01/14 05:15:47;;;;;;;13.20;1.73;;;6.00;99.90;;;;;;5060499;28;20039;-69
2023/01/14 05:18:15;;;;;;;7.20;1.17;;;5.90;99.90;;;;;;5060027;28;20029;-69
2023/01/14 05:20:42;;;;;;;8.07;1.35;;;6.00;99.90;;;;;;5068582;28;20045;-69
2023/01/14 05:23:14;;;;;;;10.43;1.60;;;6.00;99.90;;;;;;5067553;28;20124;-69
2023/01/14 05:25:41;;;;;;;12.40;2.03;;;6.00;99.90;;;;;;5050076;28;20115;-69
2023/01/14 05:28:10;;;;;;;11.55;1.73;;;5.90;99.90;;;;;;5067888;28;20131;-68
2023/01/14 05:30:36;;;;;;;9.38;1.42;;;6.00;99.90;;;;;;5060775;28;20497;-69
2023/01/14 05:33:02;;;;;;;10.23;1.97;;;6.00;99.90;;;;;;5061699;28;20111;-69
2023/01/14 05:35:27;;;;;;;14.10;1.67;;;5.90;99.90;;;;;;5055263;28;20069;-69
2023/01/14 05:37:53;;;;;;;7.53;2.17;;;5.90;99.90;;;;;;5044949;28;20040;-69
2023/01/14 05:40:19;;;;;;;8.07;1.43;;;5.90;99.90;;;;;;5064237;28;20826;-69
2023/01/14 05:45:40;;;;;;;9.45;1.80;;;6.00;99.90;;;;;;5054027;28;20690;-69
2023/01/14 05:48:09;;;;;;;;;;;6.00;99.90;;;;;;5061631;28;20045;-68
2023/01/14 05:50:36;;;;;;;14.23;1.92;;;6.00;99.90;;;;;;5060327;28;20255;-68
2023/01/14 05:53:01;;;;;;;15.07;2.10;;;6.00;99.90;;;;;;5055674;28;20163;-69
2023/01/14 05:55:27;;;;;;;18.63;1.98;;;6.00;99.90;;;;;;5065501;28;20753;-69
2023/01/14 05:57:55;;;;;;;12.17;2.07;;;6.00;99.90;;;;;;5068621;22;20032;-72
2023/01/14 06:08:35;;;;;;;21.83;2.38;;;6.00;99.90;;;;;;5050009;28;20124;-72
2023/01/14 06:11:01;;;;;;;11.93;2.25;;;6.00;99.90;;;;;;5054440;28;20033;-72
2023/01/14 06:13:27;;;;;;;14.53;2.17;;;6.00;99.90;;;;;;5066029;28;20314;-73
2023/01/14 06:15:55;;;;;;;12.43;2.75;;;6.00;99.90;;;;;;5052615;28;20329;-73
2023/01/14 06:18:23;;;;;;;10.85;2.10;;;6.00;99.90;;;;;;5055264;28;20361;-72
2023/01/14 06:20:50;;;;;;;14.48;3.33;;;6.00;99.90;;;;;;5040893;28;20326;-72
2023/01/14 06:23:16;;;;;;;8.57;2.38;;;6.00;99.90;;;;;;5057602;28;20575;-73
2023/01/14 06:25:44;;;;;;;15.43;2.97;;;6.00;99.90;;;;;;5063197;28;20542;-72
2023/01/14 06:28:09;;;;;;;13.13;2.22;;;6.00;99.90;;;;;;5054235;28;20042;-72
2023/01/14 06:30:35;;;;;;;11.80;3.03;;;6.00;99.90;;;;;;5054865;28;20494;-72
2023/01/14 06:33:01;;;;;;;10.80;2.30;;;6.00;99.90;;;;;;5064270;28;20355;-73
2023/01/14 06:35:26;;;;;;;20.20;2.83;;;6.00;99.90;;;;;;5065339;28;20058;-72
2023/01/14 06:37:52;;;;;;;13.52;2.72;;;6.00;99.90;;;;;;5050236;28;20041;-72
2023/01/14 06:40:19;;;;;;;12.67;2.20;;;6.00;99.90;;;;;;5057991;28;20536;-72
2023/01/14 06:42:45;;;;;;;8.45;2.63;;;6.00;99.90;;;;;;5051555;28;20068;-72
2023/01/14 06:45:11;;;;;;;18.38;3.53;;;6.00;99.90;;;;;;5054108;28;20078;-73
2023/01/14 06:47:37;;;;;;;16.90;3.38;;;6.00;99.90;;;;;;5056298;28;20044;-72
2023/01/14 06:50:05;;;;;;;15.10;3.50;;;6.00;99.90;;;;;;5059293;28;20045;-72
2023/01/14 06:52:30;;;;;;;15.40;2.70;;;6.00;99.90;;;;;;5056930;28;20059;-72
2023/01/14 06:54:56;;;;;;;13.03;2.90;;;6.00;99.90;;;;;;5059868;28;20044;-72
2023/01/14 06:57:22;;;;;;;19.00;3.50;;;6.10;99.90;;;;;;5057505;28;20032;-73
2023/01/14 06:59:48;;;;;;;12.10;3.35;;;6.00;99.90;;;;;;5052582;28;20441;-72
2023/01/14 07:02:14;;;;;;;21.60;2.72;;;6.10;99.90;;;;;;5048127;28;20127;-72
2023/01/14 07:04:40;;;;;;;20.93;3.57;;;6.10;99.90;;;;;;5057975;28;20434;-72
2023/01/14 07:07:05;;;;;;;15.13;3.80;;;6.10;99.90;;;;;;5060448;28;20537;-72
2023/01/14 07:09:31;;;;;;;17.63;3.42;;;6.10;99.90;;;;;;5034961;28;20300;-72
2023/01/14 07:11:57;;;;;;;13.57;3.40;;;6.20;99.90;;;;;;5065816;28;20047;-73
2023/01/14 07:14:23;;;;;;;21.03;3.17;;;6.20;99.90;;;;;;5063455;28;20036;-73
2023/01/14 07:16:48;;;;;;;18.37;4.10;;;6.20;99.90;;;;;;5054239;28;20126;-72
2023/01/14 07:19:14;;;;;;;13.20;3.83;;;6.20;99.90;;;;;;5058432;28;20296;-72
2023/01/14 07:21:40;;;;;;;18.87;3.70;;;6.20;99.90;;;;;;5063611;28;20206;-72
2023/01/14 07:24:06;;;;;;;13.77;3.53;;;6.20;99.90;;;;;;5057629;28;20563;-72
2023/01/14 07:26:32;;;;;;;20.83;4.65;;;6.20;99.90;;;;;;5064254;28;20098;-72
2023/01/14 07:28:57;;;;;;;14.03;3.50;;;6.20;99.90;;;;;;5055826;28;20041;-72
2023/01/14 07:31:23;;;;;;;24.17;4.27;;;6.20;99.90;;;;;;5058773;28;20044;-72
2023/01/14 07:33:49;;;;;;;12.43;2.70;;;6.30;99.90;;;;;;5059325;28;20040;-73
2023/01/14 07:36:14;;;;;;;22.53;4.07;;;6.30;99.90;;;;;;5062192;28;20269;-72
2023/01/14 07:38:41;;;;;;;17.37;4.00;;;6.30;99.90;;;;;;5056872;28;20686;-73
2023/01/14 07:41:10;;;;;;;;;;;6.30;99.90;;;;;;5061675;28;20142;-72
2023/01/14 07:43:36;;;;;;;11.93;2.72;;;6.30;99.90;;;;;;5054869;28;19990;-72
2023/01/14 07:46:02;;;;;;;17.13;3.00;;;6.30;99.90;;;;;;5059371;28;20036;-72
2023/01/14 07:48:28;;;;;;;8.00;2.97;;;6.40;99.90;;;;;;5061576;28;20062;-72
2023/01/14 07:50:54;;;;;;;14.90;2.95;;;6.40;99.90;;;;;;5054649;28;20068;-72
2023/01/14 07:53:20;;;;;;;19.93;3.53;;;6.40;99.90;;;;;;5050697;28;20076;-72
2023/01/14 07:55:45;;;;;;;19.63;3.30;;;6.40;99.90;;;;;;5060668;28;20151;-72
2023/01/14 07:58:11;;;;;;;14.03;2.53;;;6.40;99.90;;;;;;5055758;28;20071;-72
2023/01/14 08:00:37;;;;;;;22.73;3.37;;;6.40;99.90;;;;;;5056224;28;20565;-73
2023/01/14 08:03:02;;;;;;;13.30;2.93;;;6.50;99.90;;;;;;5060733;28;20119;-72
2023/01/14 08:05:28;;;;;;;14.47;2.53;;;6.50;99.90;;;;;;5061494;28;20284;-72
2023/01/14 08:07:54;;;;;;;11.13;2.53;;;6.50;99.90;;;;;;5052533;28;20179;-72
2023/01/14 08:10:20;;;;;;;16.00;3.13;;;6.40;99.90;;;;;;5059900;28;20593;-72
2023/01/14 08:12:46;;;;;;;17.08;3.08;;;6.40;99.90;;;;;;5057883;28;20059;-72
2023/01/14 08:15:12;;;;;;;16.77;2.70;;;6.40;99.90;;;;;;5056767;28;20040;-72
2023/01/14 08:17:39;;;;;;;12.27;2.75;;;6.50;99.90;;;;;;5062188;28;20609;-72
2023/01/14 08:20:05;;;;;;;;;;;6.40;99.90;;;;;;5066017;28;20063;-72
2023/01/14 08:22:31;;;;;;;14.60;2.85;;;6.40;99.90;;;;;;5061387;28;19916;-72
2023/01/14 08:24:57;;;;;;;10.50;2.47;;;6.40;99.90;;;;;;5057235;28;20040;-72
2023/01/14 08:27:23;;;;;;;16.58;2.35;;;6.40;99.90;;;;;;5058673;28;20612;-72
2023/01/14 08:29:48;;;;;;;5.07;1.63;;;6.40;99.90;;;;;;5056992;28;20051;-72
2023/01/14 08:32:15;;;;;;;11.47;2.13;;;6.40;99.90;;;;;;5059534;28;20036;-72
2023/01/14 08:34:41;;;;;;;7.97;1.92;;;6.30;99.90;;;;;;5040654;28;20040;-72
2023/01/14 08:37:06;;;;;;;16.55;2.28;;;6.30;99.90;;;;;;5060251;28;20048;-72
2023/01/14 08:39:32;;;;;;;9.87;2.33;;;6.30;99.90;;;;;;5053209;28;20099;-72
2023/01/14 08:41:58;;;;;;;15.60;2.77;;;6.30;99.90;;;;;;5054839;28;20108;-72
2023/01/14 08:44:24;;;;;;;29.65;3.17;;;6.30;99.90;;;;;;5065385;28;20509;-73
2023/01/14 08:46:49;;;;;;;12.67;3.73;;;6.40;99.90;;;;;;5051765;28;20040;-73
2023/01/14 08:49:15;;;;;;;14.17;2.37;;;6.30;99.90;;;;;;5046839;28;20179;-72
2023/01/14 08:51:41;;;;;;;13.00;2.50;;;6.30;99.90;;;;;;5052523;28;20036;-73
2023/01/14 08:54:07;;;;;;;8.90;2.30;;;6.30;99.90;;;;;;5035891;28;20189;-72
2023/01/14 08:56:32;;;;;;;12.80;2.28;;;6.30;99.90;;;;;;5057204;28;20499;-73
2023/01/14 08:58:58;;;;;;;16.88;2.70;;;6.30;99.90;;;;;;5058935;28;20040;-72
2023/01/14 09:01:24;;;;;;;8.53;2.13;;;6.30;99.90;;;;;;5056046;28;20358;-72
2023/01/14 09:03:52;;;;;;;19.85;2.58;;;6.30;99.90;;;;;;5060629;28;20036;-72
2023/01/14 09:06:18;;;;;;;11.18;1.95;;;6.30;99.90;;;;;;5056374;28;20037;-72
2023/01/14 09:17:07;;;;;;;11.93;2.17;;;6.30;99.90;;;;;;5057742;28;20086;-73
2023/01/14 09:19:56;;;;;;;13.75;2.53;;;6.30;99.90;;;;;;5054023;28;20039;-73
2023/01/14 09:22:25;;;;;;;14.73;2.05;;;6.30;99.90;;;;;;5055365;28;20051;-72
2023/01/14 09:24:51;;;;;;;15.27;2.33;;;6.30;99.90;;;;;;5056890;28;20044;-73
2023/01/14 09:27:18;;;;;;;6.50;2.10;;;6.30;99.90;;;;;;5054299;28;20036;-72
2023/01/14 09:29:43;;;;;;;13.43;2.10;;;6.30;99.90;;;;;;5052925;28;20134;-72
2023/01/14 09:32:11;;;;;;;13.87;2.00;;;6.30;99.90;;;;;;5054669;28;20411;-72
2023/01/14 09:34:53;;;;;;;9.40;1.83;;;6.30;99.90;;;;;;5047414;28;20117;-72
2023/01/14 09:37:24;;;;;;;7.32;1.50;;;6.30;99.90;;;;;;5057015;28;20114;-72
2023/01/14 09:39:50;;;;;;;11.63;2.42;;;6.30;99.90;;;;;;5052206;28;20041;-73
2023/01/14 09:42:31;;;;;;;;;;;6.40;99.90;;;;;;5051210;28;20047;-72
2023/01/14 09:45:12;;;;;;;11.45;1.73;;;6.30;99.90;;;;;;5056336;28;19927;-72
2023/01/14 09:47:38;;;;;;;3.38;1.20;;;6.30;99.90;;;;;;5050605;28;20041;-72
2023/01/14 09:50:09;;;;;;;6.10;1.67;;;6.40;99.90;;;;;;5059033;28;20097;-72
2023/01/14 09:52:57;;;;;;;6.88;1.10;;;6.40;99.90;;;;;;5036958;28;20048;-72
2023/01/14 09:55:34;;;;;;;6.28;1.10;;;6.40;99.90;;;;;;5054580;28;20041;-73
2023/01/14 09:58:04;;;;;;;5.22;1.20;;;6.40;99.90;;;;;;5059523;28;20049;-72
2023/01/14 10:00:48;;;;;;;6.03;1.50;;;6.50;99.90;;;;;;5055320;28;20672;-72
2023/01/14 10:03:13;;;;;;;3.10;1.20;;;6.50;99.90;;;;;;5060420;28;20037;-72
2023/01/14 10:05:42;;;;;;;6.20;2.10;;;6.50;99.90;;;;;;5061319;28;20099;-72
2023/01/14 10:08:14;;;;;;;4.22;1.50;;;6.50;99.90;;;;;;5058242;28;20036;-72
2023/01/14 10:10:42;;;;;;;6.00;1.48;;;6.50;99.90;;;;;;5051926;28;20502;-79
2023/01/14 10:13:34;;;;;;;2.45;1.00;;;6.60;99.90;;;;;;5044191;28;20162;-72
2023/01/14 10:16:28;;;;;;;6.53;1.08;;;6.60;99.90;;;;;;5055182;28;20033;-73
2023/01/14 10:19:04;;;;;;;4.18;1.70;;;6.60;99.90;;;;;;5042414;28;20041;-72
2023/01/14 10:21:51;;;;;;;6.07;1.13;;;6.70;99.90;;;;;;5057784;28;20045;-73
2023/01/14 10:24:20;;;;;;;5.65;2.15;;;6.70;99.90;;;;;;5056307;28;20079;-72
2023/01/14 10:26:48;;;;;;;4.57;1.17;;;6.70;99.90;;;;;;5061217;28;20043;-73
2023/01/14 10:29:16;;;;;;;2.53;1.02;;;6.80;99.90;;;;;;5055045;28;20131;-73
2023/01/14 10:32:00;;;;;;;9.68;1.10;;;6.80;99.90;;;;;;5056975;28;20040;-74
2023/01/14 10:34:35;;;;;;;1.80;0.82;;;6.80;99.90;;;;;;5049764;28;20449;-72
2023/01/14 10:37:01;;;;;;;3.50;1.10;;;6.90;99.90;;;;;;5055914;28;20200;-72
2023/01/14 10:39:26;;;;;;;3.70;1.10;;;6.90;99.90;;;;;;5051352;28;20044;-73
2023/01/14 10:41:53;;;;;;;5.57;1.37;;;7.00;99.90;;;;;;5057293;28;20098;-73
2023/01/14 10:44:23;;;;;;;4.65;1.10;;;7.00;99.90;;;;;;5050980;28;20045;-73
2023/01/14 10:46:51;;;;;;;1.52;0.90;;;7.00;99.90;;;;;;5061273;28;20088;-72
2023/01/14 10:49:37;;;;;;;3.88;1.13;;;7.00;99.90;;;;;;5059517;28;20063;-73
2023/01/14 10:52:27;;;;;;;1.90;0.95;;;7.10;99.90;;;;;;5056994;28;20533;-72
2023/01/14 10:55:02;;;;;;;2.63;0.90;;;7.10;99.90;;;;;;5062471;28;20109;-73
2023/01/14 10:57:31;;;;;;;3.50;1.40;;;7.10;99.90;;;;;;5057227;28;20095;-72
2023/01/14 10:59:58;;;;;;;2.80;0.80;;;7.10;99.90;;;;;;5047711;28;20043;-73
2023/01/14 11:02:48;;;;;;;2.60;0.82;;;7.20;99.90;;;;;;5060379;28;20739;-73
2023/01/14 11:05:36;;;;;;;3.30;1.05;;;7.20;99.90;;;;;;5054081;28;20053;-73
2023/01/14 11:08:17;;;;;;;1.95;0.88;;;7.20;99.90;;;;;;5079551;28;20037;-72
2023/01/14 11:10:43;;;;;;;1.75;0.77;;;7.20;99.90;;;;;;5051130;28;20102;-72
2023/01/14 11:13:25;;;;;;;2.90;0.80;;;7.20;99.90;;;;;;5057253;28;20028;-72
2023/01/14 11:15:53;;;;;;;1.92;1.02;;;7.30;99.90;;;;;;5051785;28;20090;-73
2023/01/14 11:18:26;;;;;;;4.55;1.15;;;7.20;99.90;;;;;;5059579;28;20490;-72
2023/01/14 11:21:10;;;;;;;4.78;0.75;;;7.30;99.90;;;;;;5050492;28;20059;-72
2023/01/14 11:23:39;;;;;;;5.32;1.05;;;7.30;99.90;;;;;;5053104;28;20060;-73
2023/01/14 11:26:23;;;;;;;1.90;0.98;;;7.30;99.90;;;;;;5063177;28;20040;-72
2023/01/14 11:28:58;;;;;;;1.90;0.82;;;7.30;99.90;;;;;;5054595;28;20048;-72
2023/01/14 11:31:35;;;;;;;1.83;1.00;;;7.30;99.90;;;;;;5060943;28;20044;-72
2023/01/14 11:34:01;;;;;;;2.72;0.90;;;7.30;99.90;;;;;;5057086;28;20040;-73
2023/01/14 11:36:29;;;;;;;2.13;0.90;;;7.30;99.90;;;;;;5056502;28;20122;-72
2023/01/14 11:38:57;;;;;;;1.50;0.73;;;7.40;99.90;;;;;;5056720;28;20045;-72
2023/01/14 11:41:30;;;;;;;4.43;0.90;;;7.40;99.90;;;;;;5051657;28;20040;-72
2023/01/14 11:44:06;;;;;;;1.75;0.95;;;7.40;99.90;;;;;;5043368;28;20098;-72
2023/01/14 11:46:33;;;;;;;2.17;0.73;;;7.30;99.90;;;;;;5053341;28;20401;-72
2023/01/14 11:49:21;;;;;;;1.40;0.90;;;7.40;99.90;;;;;;5059744;28;20536;-73
2023/01/14 11:51:55;;;;;;;2.05;0.73;;;7.40;99.90;;;;;;5053240;28;20045;-72
2023/01/14 11:54:21;;;;;;;2.88;0.70;;;7.40;99.90;;;;;;5050670;28;20060;-73
2023/01/14 11:56:47;;;;;;;1.43;0.80;;;7.40;99.90;;;;;;5065673;22;20041;-69
2023/01/14 11:59:22;;;;;;;2.00;1.15;;;7.40;99.90;;;;;;5040629;28;20041;-68
2023/01/14 12:01:55;;;;;;;3.88;1.00;;;7.50;99.90;;;;;;5037504;28;20431;-68
2023/01/14 12:04:25;;;;;;;2.92;0.80;;;7.50;99.90;;;;;;5039445;28;20052;-69
2023/01/14 12:07:17;;;;;;;3.08;0.73;;;7.50;99.90;;;;;;5042897;28;20041;-69
2023/01/14 12:10:11;;;;;;;2.90;0.90;;;7.50;99.90;;;;;;5035486;28;20080;-68
2023/01/14 12:18:58;;;;;;;4.15;0.95;;;7.70;99.90;;;;;;5038215;28;20060;-69
2023/01/14 12:21:30;;;;;;;2.22;0.80;;;7.60;99.90;;;;;;5031338;28;20406;-67
2023/01/14 12:24:21;;;;;;;3.03;0.70;;;7.70;99.90;;;;;;5038870;28;20076;-66
2023/01/14 12:26:48;;;;;;;0.90;0.60;;;7.70;99.90;;;;;;4997615;28;20053;-67
2023/01/14 12:29:21;;;;;;;2.13;0.80;;;7.80;99.90;;;;;;5036076;28;20044;-66
2023/01/14 12:32:00;;;;;;;2.45;0.85;;;7.80;99.90;;;;;;5028374;28;20517;-67
2023/01/14 12:34:44;;;;;;;3.55;0.75;;;7.80;99.90;;;;;;5037783;28;20521;-67
2023/01/14 12:37:27;;;;;;;2.03;0.70;;;7.80;99.90;;;;;;5017462;28;20048;-67
2023/01/14 12:45:41;;;;;;;1.73;0.60;;;8.00;99.90;;;;;;5009677;28;20518;-67
2023/01/14 12:46:03;;;;;;;1.15;0.60;;;8.00;99.90;;;;;;5032776;28;20048;-67
2023/01/14 12:48:30;;;;;;;3.58;1.00;;;8.00;99.90;;;;;;5034469;28;20559;-68
2023/01/14 12:51:24;;;;;;;2.10;0.75;;;8.10;99.90;;;;;;5038105;28;20068;-68
2023/01/14 12:54:07;;;;;;;2.28;0.90;;;8.20;99.90;;;;;;5039784;28;20096;-68
2023/01/14 12:56:42;;;;;;;1.38;0.73;;;8.20;99.90;;;;;;5034953;28;20485;-68
2023/01/14 12:59:34;;;;;;;0.85;0.50;;;8.40;99.90;;;;;;5029634;28;20046;-68
2023/01/14 13:02:05;;;;;;;1.38;0.63;;;8.30;99.90;;;;;;5034720;28;20091;-68
2023/01/14 13:04:43;;;;;;;2.65;0.60;;;8.40;99.90;;;;;;5035601;28;20465;-68
2023/01/14 13:07:18;;;;;;;2.65;0.40;;;8.40;99.90;;;;;;5028782;28;20040;-68
2023/01/14 13:09:45;;;;;;;1.80;0.63;;;8.50;99.90;;;;;;5034255;28;20110;-68
2023/01/14 13:12:27;;;;;;;1.00;0.40;;;8.50;99.90;;;;;;5031494;28;20406;-68
2023/01/14 13:14:56;;;;;;;1.27;0.55;;;8.60;99.90;;;;;;5033608;28;20037;-68
2023/01/14 13:17:41;;;;;;;0.60;0.40;;;8.60;99.90;;;;;;5037726;28;21014;-68
2023/01/14 13:20:18;;;;;;;2.25;0.50;;;8.70;99.90;;;;;;5033728;28;20069;-67
2023/01/14 13:22:52;;;;;;;1.70;0.73;;;8.70;99.90;;;;;;5021743;28;20290;-68
2023/01/14 13:25:35;;;;;;;3.78;2.38;;;8.70;99.90;;;;;;5033437;28;20045;-68
2023/01/14 13:28:23;;;;;;;3.17;2.22;;;8.80;99.90;;;;;;5036845;28;20545;-67
2023/01/14 13:31:20;;;;;;;6.32;5.57;;;8.90;99.90;;;;;;5024820;28;20352;-68
2023/01/14 13:34:21;;;;;;;2.60;1.67;;;8.90;99.90;;;;;;5030064;28;20113;-69
2023/01/14 13:36:59;;;;;;;5.15;1.60;;;8.90;99.90;;;;;;5024843;28;20297;-69
2023/01/14 13:39:30;;;;;;;1.60;0.70;;;8.90;99.90;;;;;;5032407;28;20116;-69
2023/01/14 13:42:01;;;;;;;3.83;0.93;;;9.00;99.90;;;;;;5021556;28;20036;-67
2023/01/14 13:44:37;;;;;;;1.05;0.50;;;9.00;99.90;;;;;;5035094;28;20083;-69
2023/01/14 13:47:05;;;;;;;1.67;0.90;;;9.00;99.90;;;;;;5033651;28;20120;-69
2023/01/14 13:49:38;;;;;;;0.85;0.60;;;9.10;99.90;;;;;;5038131;28;20045;-69